createdAt,value
2019-02-24T00:01:40.001Z,3.14
2019-02-24T00:04:08.072Z,3.15
2019-02-24T00:06:36.965Z,3.17
2019-02-24T00:09:06.470Z,3.09
2019-02-24T00:11:35.141Z,3.11
2019-02-24T00:14:03.796Z,3.11
2019-02-24T00:16:32.771Z,2.97
2019-02-24T00:19:01.664Z,2.94
2019-02-24T00:21:31.149Z,2.93
2019-02-24T00:23:59.812Z,2.91
2019-02-24T00:26:28.717Z,2.92
2019-02-24T00:28:57.408Z,2.92
2019-02-24T00:31:26.376Z,2.95
2019-02-24T00:33:55.300Z,2.88
2019-02-24T00:36:24.212Z,2.84
2019-02-24T00:38:52.881Z,2.70
2019-02-24T00:41:21.539Z,2.68
2019-02-24T00:43:50.464Z,2.69
2019-02-24T00:46:19.611Z,2.65
2019-02-24T00:48:48.272Z,2.53
2019-02-24T00:51:17.262Z,2.52
2019-02-24T00:53:46.175Z,2.51
2019-02-24T00:56:14.819Z,2.48
2019-02-24T00:58:43.529Z,2.41
2019-02-24T01:01:12.198Z,2.44
2019-02-24T01:03:40.864Z,2.58
2019-02-24T01:06:09.835Z,2.61
2019-02-24T01:08:38.576Z,2.56
2019-02-24T01:11:07.310Z,2.70
2019-02-24T01:13:36.236Z,2.75
2019-02-24T01:16:04.876Z,2.65
2019-02-24T01:18:33.548Z,2.67
2019-02-24T01:21:02.471Z,2.65
2019-02-24T01:23:31.618Z,2.60
2019-02-24T01:26:00.288Z,2.73
2019-02-24T01:28:28.974Z,2.66
2019-02-24T01:30:57.858Z,2.68
2019-02-24T01:33:26.529Z,2.74
2019-02-24T01:35:55.421Z,2.69
2019-02-24T01:38:24.093Z,2.68
2019-02-24T01:40:52.750Z,2.79
2019-02-24T01:43:21.463Z,2.81
2019-02-24T01:45:50.113Z,1.98
2019-02-24T01:48:21.896Z,2.75
2019-02-24T01:50:50.543Z,2.66
2019-02-24T01:53:19.456Z,2.66
2019-02-24T01:55:48.107Z,2.46
2019-02-24T01:58:16.820Z,2.34
2019-02-24T02:00:45.474Z,2.46
2019-02-24T02:03:14.160Z,2.36
2019-02-24T02:05:42.831Z,2.27
2019-02-24T02:08:11.992Z,2.24
2019-02-24T02:10:40.923Z,2.27
2019-02-24T02:13:09.585Z,2.29
2019-02-24T02:15:38.321Z,2.24
2019-02-24T02:18:07.026Z,2.27
2019-02-24T02:20:35.765Z,2.27
2019-02-24T02:23:04.551Z,2.35
2019-02-24T02:25:33.461Z,2.41
2019-02-24T02:28:02.128Z,2.42
2019-02-24T02:30:30.886Z,2.35
2019-02-24T02:32:59.800Z,2.33
2019-02-24T02:35:28.493Z,2.43
2019-02-24T02:37:59.757Z,2.41
2019-02-24T02:40:28.500Z,2.32
2019-02-24T02:42:57.404Z,2.28
2019-02-24T02:45:26.080Z,2.37
2019-02-24T02:47:55.234Z,2.45
2019-02-24T02:50:23.915Z,2.41
2019-02-24T02:52:52.587Z,2.42
2019-02-24T02:55:21.247Z,2.31
2019-02-24T02:57:49.906Z,2.36
2019-02-24T03:00:35.020Z,2.28
2019-02-24T03:03:04.113Z,2.42
2019-02-24T03:05:32.868Z,2.41
2019-02-24T03:08:07.400Z,2.34
2019-02-24T03:10:36.080Z,2.33
2019-02-24T03:13:04.839Z,2.31
2019-02-24T03:15:33.587Z,2.30
2019-02-24T03:18:02.236Z,2.34
2019-02-24T03:20:31.093Z,2.35
2019-02-24T03:22:59.774Z,2.33
2019-02-24T03:25:28.694Z,2.27
2019-02-24T03:27:57.406Z,2.21
2019-02-24T03:30:26.339Z,2.13
2019-02-24T03:32:55.493Z,2.14
2019-02-24T03:35:26.540Z,2.23
2019-02-24T03:37:55.457Z,2.20
2019-02-24T03:40:24.125Z,2.18
2019-02-24T03:42:52.787Z,2.29
2019-02-24T03:45:21.483Z,2.32
2019-02-24T03:47:50.645Z,2.22
2019-02-24T03:50:19.317Z,2.29
2019-02-24T03:52:48.046Z,2.31
2019-02-24T03:55:16.718Z,2.27
2019-02-24T03:57:45.624Z,2.21
2019-02-24T04:00:14.525Z,2.26
2019-02-24T04:02:43.206Z,2.24
2019-02-24T04:05:12.097Z,2.20
2019-02-24T04:07:41.014Z,2.15
2019-02-24T04:10:09.681Z,2.15
2019-02-24T04:12:38.430Z,2.12
2019-02-24T04:15:07.513Z,2.13
2019-02-24T04:17:36.200Z,2.15
2019-02-24T04:20:05.034Z,2.13
2019-02-24T04:22:33.947Z,2.15
2019-02-24T04:25:02.975Z,2.17
2019-02-24T04:27:31.655Z,2.22
2019-02-24T04:30:00.386Z,2.23
2019-02-24T04:32:29.060Z,2.35
2019-02-24T04:34:57.715Z,2.30
2019-02-24T04:37:26.400Z,2.29
2019-02-24T04:39:55.289Z,2.40
2019-02-24T04:42:23.970Z,2.38
2019-02-24T04:44:52.885Z,2.29
2019-02-24T04:47:21.562Z,2.22
2019-02-24T04:49:50.246Z,2.11
2019-02-24T04:52:18.958Z,2.01
2019-02-24T04:54:47.892Z,1.98
2019-02-24T04:57:16.829Z,1.96
2019-02-24T04:59:45.509Z,1.96
2019-02-24T05:02:14.172Z,1.96
2019-02-24T05:04:42.834Z,1.99
2019-02-24T05:07:11.522Z,2.01
2019-02-24T05:09:40.413Z,2.06
2019-02-24T05:12:09.327Z,2.20
2019-02-24T05:14:37.985Z,2.19
2019-02-24T05:17:06.753Z,2.15
2019-02-24T05:19:35.692Z,2.10
2019-02-24T05:22:04.355Z,2.00
2019-02-24T05:24:33.052Z,1.95
2019-02-24T05:27:01.762Z,1.89
2019-02-24T05:29:30.693Z,1.86
2019-02-24T05:31:59.429Z,1.83
2019-02-24T05:34:28.133Z,1.88
2019-02-24T05:36:57.116Z,1.85
2019-02-24T05:39:25.794Z,1.89
2019-02-24T05:41:54.436Z,1.86
2019-02-24T05:44:23.355Z,1.88
2019-02-24T05:46:52.595Z,1.79
2019-02-24T05:49:30.334Z,1.76
2019-02-24T05:52:04.284Z,1.71
2019-02-24T05:54:33.000Z,1.79
2019-02-24T05:57:01.907Z,1.81
2019-02-24T05:59:30.586Z,1.83
2019-02-24T06:01:59.257Z,1.78
2019-02-24T06:04:36.418Z,1.80
2019-02-24T06:07:08.275Z,1.69
2019-02-24T06:09:58.188Z,1.80
2019-02-24T06:12:28.201Z,1.81
2019-02-24T06:14:57.097Z,1.81
2019-02-24T06:17:26.040Z,1.82
2019-02-24T06:19:54.708Z,1.80
2019-02-24T06:22:23.683Z,1.82
2019-02-24T06:24:52.609Z,1.79
2019-02-24T06:27:23.031Z,1.82
2019-02-24T06:29:51.942Z,1.85
2019-02-24T06:32:20.858Z,1.79
2019-02-24T06:34:49.789Z,1.82
2019-02-24T06:37:18.441Z,1.76
2019-02-24T06:39:47.871Z,1.77
2019-02-24T06:42:16.794Z,1.83
2019-02-24T06:44:45.730Z,1.84
2019-02-24T06:47:14.382Z,1.83
2019-02-24T06:49:43.298Z,1.90
2019-02-24T06:52:11.971Z,1.89
2019-02-24T06:54:40.656Z,1.98
2019-02-24T06:57:09.562Z,1.93
2019-02-24T06:59:38.475Z,1.95
2019-02-24T07:02:07.368Z,2.05
2019-02-24T07:04:36.355Z,2.06
2019-02-24T07:07:05.033Z,2.12
2019-02-24T07:09:33.953Z,2.15
2019-02-24T07:12:02.898Z,2.20
2019-02-24T07:14:31.563Z,2.22
2019-02-24T07:17:00.490Z,2.24
2019-02-24T07:19:29.933Z,2.26
2019-02-24T07:21:58.841Z,2.36
2019-02-24T07:24:27.793Z,2.48
2019-02-24T07:26:56.454Z,2.48
2019-02-24T07:29:25.372Z,2.51
2019-02-24T07:31:54.013Z,2.49
2019-02-24T07:34:22.939Z,2.62
2019-02-24T07:36:51.847Z,2.69
2019-02-24T07:39:20.745Z,2.77
2019-02-24T07:41:49.650Z,2.86
2019-02-24T07:44:20.429Z,2.96
2019-02-24T07:46:49.329Z,2.97
2019-02-24T07:49:18.005Z,3.04
2019-02-24T07:51:46.901Z,3.06
2019-02-24T07:54:15.837Z,3.26
2019-02-24T07:56:44.760Z,3.32
2019-02-24T07:59:13.440Z,3.41
2019-02-24T08:01:42.663Z,3.45
2019-02-24T08:04:11.873Z,3.50
2019-02-24T08:06:40.538Z,3.63
2019-02-24T08:09:09.351Z,3.61
2019-02-24T08:11:38.012Z,3.69
2019-02-24T08:14:06.771Z,3.80
2019-02-24T08:16:35.438Z,3.88
2019-02-24T08:19:04.125Z,4.06
2019-02-24T08:21:32.801Z,4.11
2019-02-24T08:24:01.486Z,4.19
2019-02-24T08:26:30.491Z,4.23
2019-02-24T08:28:59.242Z,4.37
2019-02-24T08:31:28.184Z,4.43
2019-02-24T08:33:56.857Z,4.58
2019-02-24T08:36:25.792Z,4.69
2019-02-24T08:38:54.564Z,4.77
2019-02-24T08:41:23.568Z,4.89
2019-02-24T08:43:52.224Z,4.94
2019-02-24T08:46:21.225Z,5.07
2019-02-24T08:48:49.924Z,5.21
2019-02-24T08:51:18.848Z,5.29
2019-02-24T08:53:48.007Z,5.42
2019-02-24T08:56:16.725Z,5.51
2019-02-24T08:58:45.627Z,5.61
2019-02-24T09:01:14.472Z,5.73
2019-02-24T09:03:43.145Z,5.77
2019-02-24T09:06:12.064Z,5.77
2019-02-24T09:08:40.821Z,5.95
2019-02-24T09:11:09.574Z,6.09
2019-02-24T09:13:38.244Z,6.07
2019-02-24T09:16:06.915Z,6.12
2019-02-24T09:18:35.579Z,6.25
2019-02-24T09:21:04.580Z,6.41
2019-02-24T09:23:33.305Z,6.43
2019-02-24T09:26:01.981Z,6.43
2019-02-24T09:28:30.672Z,6.51
2019-02-24T09:31:00.984Z,6.65
2019-02-24T09:33:29.885Z,6.86
2019-02-24T09:35:58.570Z,7.08
2019-02-24T09:38:27.475Z,7.23
2019-02-24T09:40:56.435Z,7.19
2019-02-24T09:43:25.179Z,7.17
2019-02-24T09:45:55.219Z,7.25
2019-02-24T09:48:25.334Z,7.40
2019-02-24T09:50:54.015Z,7.37
2019-02-24T09:53:22.914Z,7.56
2019-02-24T09:55:51.836Z,7.80
2019-02-24T09:58:20.498Z,8.01
2019-02-24T10:00:49.186Z,8.20
2019-02-24T10:03:17.945Z,8.25
2019-02-24T10:05:46.613Z,8.46
2019-02-24T10:08:15.303Z,8.49
2019-02-24T10:10:46.344Z,8.56
2019-02-24T10:13:15.096Z,8.60
2019-02-24T10:15:44.265Z,8.77
2019-02-24T10:18:13.216Z,8.85
2019-02-24T10:20:42.208Z,8.99
2019-02-24T10:23:10.867Z,9.00
2019-02-24T10:25:39.880Z,8.99
2019-02-24T10:28:08.558Z,9.14
2019-02-24T10:30:38.006Z,9.21
2019-02-24T10:33:06.782Z,9.22
2019-02-24T10:35:36.278Z,9.32
2019-02-24T10:38:05.020Z,9.49
2019-02-24T10:40:33.946Z,9.58
2019-02-24T10:43:02.702Z,9.77
2019-02-24T10:45:31.604Z,9.97
2019-02-24T10:48:00.296Z,10.24
2019-02-24T10:50:29.202Z,10.35
2019-02-24T10:52:58.752Z,10.53
2019-02-24T10:55:27.743Z,10.65
2019-02-24T10:57:56.421Z,10.81
2019-02-24T11:00:25.273Z,10.86
2019-02-24T11:02:54.282Z,10.95
2019-02-24T11:05:23.560Z,10.99
2019-02-24T11:07:52.755Z,11.04
2019-02-24T11:10:23.607Z,11.09
2019-02-24T11:12:53.151Z,11.15
2019-02-24T11:15:24.261Z,11.21
2019-02-24T11:17:52.958Z,11.17
2019-02-24T11:20:21.854Z,11.12
2019-02-24T11:22:50.773Z,11.26
2019-02-24T11:25:19.514Z,11.38
2019-02-24T11:27:48.815Z,11.38
2019-02-24T11:30:17.723Z,11.40
2019-02-24T11:32:46.666Z,11.38
2019-02-24T11:35:15.366Z,11.40
2019-02-24T11:37:44.086Z,11.46
2019-02-24T11:40:12.753Z,11.58
2019-02-24T11:42:41.427Z,11.67
2019-02-24T11:45:10.450Z,11.56
2019-02-24T11:47:39.723Z,11.55
2019-02-24T11:50:11.186Z,11.54
2019-02-24T11:52:40.267Z,11.56
2019-02-24T11:55:09.151Z,11.68
2019-02-24T11:57:38.158Z,11.66
2019-02-24T12:00:07.129Z,11.82
2019-02-24T12:02:36.026Z,11.93
2019-02-24T12:05:05.260Z,11.92
2019-02-24T12:07:34.154Z,11.93
2019-02-24T12:10:02.819Z,11.97
2019-02-24T12:12:31.742Z,12.16
2019-02-24T12:15:00.720Z,12.29
2019-02-24T12:17:29.667Z,12.46
2019-02-24T12:19:58.327Z,12.37
2019-02-24T12:22:26.971Z,12.29
2019-02-24T12:24:55.894Z,12.50
2019-02-24T12:27:24.584Z,12.58
2019-02-24T12:29:53.250Z,12.66
2019-02-24T12:32:21.943Z,12.40
2019-02-24T12:34:50.897Z,12.51
2019-02-24T12:37:19.823Z,12.60
2019-02-24T12:39:48.718Z,12.84
2019-02-24T12:42:17.867Z,12.94
2019-02-24T12:44:46.804Z,12.88
2019-02-24T12:47:15.483Z,12.96
2019-02-24T12:49:44.417Z,13.13
2019-02-24T12:52:13.302Z,13.20
2019-02-24T12:54:41.963Z,13.29
2019-02-24T12:57:11.031Z,13.49
2019-02-24T12:59:39.925Z,13.48
2019-02-24T13:02:08.894Z,13.48
2019-02-24T13:04:37.819Z,13.56
2019-02-24T13:07:06.507Z,13.68
2019-02-24T13:09:35.414Z,13.77
2019-02-24T13:12:04.257Z,13.76
2019-02-24T13:14:32.926Z,14.02
2019-02-24T13:17:01.595Z,14.20
2019-02-24T13:19:30.563Z,14.32
2019-02-24T13:21:59.465Z,14.33
2019-02-24T13:24:28.119Z,14.43
2019-02-24T13:26:56.799Z,14.50
2019-02-24T13:29:25.483Z,14.50
2019-02-24T13:31:54.161Z,14.56
2019-02-24T13:34:22.852Z,14.61
2019-02-24T13:36:51.844Z,14.60
2019-02-24T13:39:20.824Z,14.58
2019-02-24T13:41:49.503Z,14.43
2019-02-24T13:44:18.185Z,14.46
2019-02-24T13:46:46.846Z,14.43
2019-02-24T13:49:15.605Z,14.51
2019-02-24T13:51:44.543Z,14.55
2019-02-24T13:54:16.635Z,14.40
2019-02-24T13:56:45.519Z,14.43
2019-02-24T13:59:14.355Z,14.57
2019-02-24T14:01:48.156Z,14.54
2019-02-24T14:04:17.083Z,14.49
2019-02-24T14:06:47.292Z,14.52
2019-02-24T14:09:16.381Z,14.62
2019-02-24T14:11:45.403Z,14.52
2019-02-24T14:14:14.085Z,14.50
2019-02-24T14:16:42.745Z,14.47
2019-02-24T14:19:11.458Z,14.79
2019-02-24T14:21:50.838Z,14.83
2019-02-24T14:24:13.211Z,14.87
2019-02-24T14:26:41.917Z,14.90
2019-02-24T14:29:10.602Z,14.86
2019-02-24T14:31:39.380Z,14.91
2019-02-24T14:34:11.164Z,14.91
2019-02-24T14:36:42.513Z,14.86
2019-02-24T14:39:11.978Z,14.91
2019-02-24T14:41:40.663Z,14.93
2019-02-24T14:44:09.398Z,14.94
2019-02-24T14:46:38.317Z,14.83
2019-02-24T14:49:07.082Z,14.89
2019-02-24T14:51:35.760Z,14.94
2019-02-24T14:54:04.728Z,14.93
2019-02-24T14:56:36.992Z,14.86
2019-02-24T14:59:07.051Z,14.31
2019-02-24T15:01:36.591Z,14.73
2019-02-24T15:04:05.936Z,14.45
2019-02-24T15:06:35.349Z,14.33
2019-02-24T15:09:04.830Z,14.21
2019-02-24T15:11:34.108Z,14.09
2019-02-24T15:14:02.770Z,13.95
2019-02-24T15:16:32.335Z,13.84
2019-02-24T15:19:00.984Z,13.65
2019-02-24T15:21:30.100Z,13.73
2019-02-24T15:23:59.161Z,13.65
2019-02-24T15:26:29.633Z,13.71
2019-02-24T15:28:58.358Z,13.77
2019-02-24T15:31:27.292Z,13.59
2019-02-24T15:33:55.946Z,13.48
2019-02-24T15:36:24.633Z,13.59
2019-02-24T15:38:53.599Z,13.59
2019-02-24T15:41:29.502Z,13.45
2019-02-24T15:43:53.741Z,13.39
2019-02-24T15:46:22.679Z,13.40
2019-02-24T15:48:51.797Z,13.40
2019-02-24T15:51:20.733Z,13.30
2019-02-24T15:53:49.417Z,13.14
2019-02-24T15:56:18.232Z,13.07
2019-02-24T15:58:46.885Z,13.21
2019-02-24T16:01:15.833Z,13.25
2019-02-24T16:03:44.479Z,13.22
2019-02-24T16:06:13.466Z,13.41
2019-02-24T16:08:43.514Z,13.42
2019-02-24T16:11:12.428Z,13.55
2019-02-24T16:13:43.044Z,13.56
2019-02-24T16:16:12.701Z,13.60
2019-02-24T16:18:41.990Z,13.64
2019-02-24T16:21:10.861Z,13.70
2019-02-24T16:23:40.595Z,13.76
2019-02-24T16:26:09.271Z,13.85
2019-02-24T16:28:37.954Z,13.64
2019-02-24T16:31:06.608Z,13.27
2019-02-24T16:33:35.351Z,12.85
2019-02-24T16:36:04.340Z,12.58
2019-02-24T16:38:33.037Z,12.27
2019-02-24T16:41:01.736Z,11.93
2019-02-24T16:43:30.505Z,11.68
2019-02-24T16:45:59.537Z,11.47
2019-02-24T16:48:28.427Z,11.28
2019-02-24T16:50:57.136Z,11.10
2019-02-24T16:53:25.802Z,10.98
2019-02-24T16:55:55.452Z,10.79
2019-02-24T16:58:24.301Z,10.68
2019-02-24T17:00:52.957Z,10.69
2019-02-24T17:03:21.635Z,10.58
2019-02-24T17:05:50.309Z,10.56
2019-02-24T17:08:18.985Z,10.47
2019-02-24T17:10:47.979Z,10.53
2019-02-24T17:13:16.894Z,10.55
2019-02-24T17:15:45.611Z,10.45
2019-02-24T17:18:14.568Z,10.34
2019-02-24T17:20:43.249Z,10.27
2019-02-24T17:23:11.925Z,10.16
2019-02-24T17:25:40.582Z,10.05
2019-02-24T17:28:09.301Z,9.92
2019-02-24T17:30:38.698Z,9.87
2019-02-24T17:33:07.728Z,9.74
2019-02-24T17:35:36.692Z,9.62
2019-02-24T17:38:05.721Z,9.69
2019-02-24T17:40:35.369Z,9.65
2019-02-24T17:43:04.555Z,9.65
2019-02-24T17:45:33.796Z,9.59
2019-02-24T17:48:02.674Z,9.36
2019-02-24T17:50:31.606Z,9.13
2019-02-24T17:53:00.275Z,9.26
2019-02-24T17:55:28.948Z,9.40
2019-02-24T17:57:58.023Z,9.33
2019-02-24T18:00:29.904Z,9.22
2019-02-24T18:02:58.598Z,9.31
2019-02-24T18:05:27.403Z,9.22
2019-02-24T18:07:56.332Z,9.05
2019-02-24T18:10:25.317Z,8.94
2019-02-24T18:12:54.004Z,8.97
2019-02-24T18:15:22.686Z,8.92
2019-02-24T18:17:51.382Z,8.80
2019-02-24T18:20:20.169Z,8.67
2019-02-24T18:22:49.000Z,8.61
2019-02-24T18:25:17.848Z,8.63
2019-02-24T18:27:48.559Z,8.66
2019-02-24T18:30:19.541Z,8.44
2019-02-24T18:32:48.199Z,8.37
2019-02-24T18:35:17.134Z,8.40
2019-02-24T18:37:45.969Z,8.46
2019-02-24T18:40:14.900Z,8.46
2019-02-24T18:42:43.876Z,8.35
2019-02-24T18:45:12.957Z,8.28
2019-02-24T18:47:42.268Z,8.07
2019-02-24T18:50:11.502Z,7.92
2019-02-24T18:52:40.311Z,7.82
2019-02-24T18:55:09.453Z,7.79
2019-02-24T18:57:38.148Z,7.81
2019-02-24T19:00:09.015Z,7.77
2019-02-24T19:02:38.032Z,7.84
2019-02-24T19:05:07.351Z,7.88
2019-02-24T19:07:36.013Z,7.85
2019-02-24T19:10:07.460Z,7.80
2019-02-24T19:12:36.451Z,7.80
2019-02-24T19:15:06.019Z,7.80
2019-02-24T19:17:34.746Z,7.84
2019-02-24T19:20:03.846Z,7.81
2019-02-24T19:22:32.503Z,7.74
2019-02-24T19:25:01.238Z,7.77
2019-02-24T19:27:30.230Z,7.68
2019-02-24T19:29:58.926Z,7.60
2019-02-24T19:32:29.417Z,7.55
2019-02-24T19:34:58.083Z,7.49
2019-02-24T19:37:27.410Z,7.45
2019-02-24T19:39:56.379Z,7.57
2019-02-24T19:42:25.605Z,7.53
2019-02-24T19:44:54.300Z,7.43
2019-02-24T19:47:22.965Z,7.39
2019-02-24T19:49:51.647Z,7.37
2019-02-24T19:52:20.635Z,7.38
2019-02-24T19:54:49.552Z,7.42
2019-02-24T19:57:18.438Z,7.39
2019-02-24T19:59:47.210Z,7.32
2019-02-24T20:02:16.122Z,7.27
2019-02-24T20:04:44.793Z,7.30
2019-02-24T20:07:13.480Z,7.34
2019-02-24T20:09:42.219Z,7.43
2019-02-24T20:12:11.140Z,7.52
2019-02-24T20:14:39.873Z,7.65
2019-02-24T20:17:08.925Z,7.72
2019-02-24T20:19:37.601Z,7.90
2019-02-24T20:22:06.334Z,8.06
2019-02-24T20:24:35.010Z,8.10
2019-02-24T20:27:04.071Z,8.13
2019-02-24T20:29:35.557Z,8.17
2019-02-24T20:32:04.339Z,8.03
2019-02-24T20:34:33.015Z,7.81
2019-02-24T20:37:02.006Z,7.81
2019-02-24T20:39:30.993Z,7.74
2019-02-24T20:41:59.930Z,7.61
2019-02-24T20:44:28.985Z,7.56
2019-02-24T20:46:57.986Z,7.58
2019-02-24T20:49:26.952Z,7.55
2019-02-24T20:51:55.640Z,7.53
2019-02-24T20:54:24.657Z,7.51
2019-02-24T20:56:53.839Z,7.52
2019-02-24T20:59:22.816Z,7.56
2019-02-24T21:01:51.511Z,7.72
2019-02-24T21:04:20.172Z,7.78
2019-02-24T21:06:48.858Z,7.84
2019-02-24T21:09:17.507Z,7.75
2019-02-24T21:11:46.466Z,7.58
2019-02-24T21:14:15.173Z,7.41
2019-02-24T21:16:44.490Z,7.32
2019-02-24T21:19:13.312Z,7.17
2019-02-24T21:21:42.006Z,7.11
2019-02-24T21:24:10.780Z,7.30
2019-02-24T21:26:39.492Z,7.44
2019-02-24T21:29:08.493Z,7.10
2019-02-24T21:31:37.158Z,7.56
2019-02-24T21:34:05.990Z,7.45
2019-02-24T21:36:38.393Z,7.37
2019-02-24T21:39:08.235Z,7.28
2019-02-24T21:41:37.007Z,7.10
2019-02-24T21:44:05.812Z,6.99
2019-02-24T21:46:38.513Z,6.90
2019-02-24T21:49:07.283Z,6.84
2019-02-24T21:51:38.028Z,6.77
2019-02-24T21:54:07.059Z,6.68
2019-02-24T21:56:36.014Z,6.63
2019-02-24T21:59:05.010Z,6.68
2019-02-24T22:01:33.787Z,6.71
2019-02-24T22:04:02.454Z,6.65
2019-02-24T22:06:31.121Z,6.66
2019-02-24T22:09:00.102Z,6.81
2019-02-24T22:11:28.778Z,6.94
2019-02-24T22:13:57.464Z,7.18
2019-02-24T22:16:26.147Z,7.13
2019-02-24T22:18:54.846Z,7.10
2019-02-24T22:21:23.813Z,7.19
2019-02-24T22:23:53.077Z,7.18
2019-02-24T22:26:21.740Z,7.21
2019-02-24T22:28:50.449Z,7.23
2019-02-24T22:31:19.086Z,7.29
2019-02-24T22:33:47.766Z,7.26
2019-02-24T22:36:16.856Z,7.03
2019-02-24T22:38:45.507Z,6.74
2019-02-24T22:41:14.502Z,6.91
2019-02-24T22:43:43.330Z,6.90
2019-02-24T22:46:11.992Z,6.86
2019-02-24T22:48:41.114Z,6.90
2019-02-24T22:51:09.798Z,6.85
2019-02-24T22:53:38.482Z,6.85
2019-02-24T22:56:07.180Z,6.84
2019-02-24T22:58:36.153Z,6.80
2019-02-24T23:01:16.341Z,6.76
2019-02-24T23:03:46.958Z,6.77
2019-02-24T23:06:16.015Z,6.94
2019-02-24T23:08:45.100Z,6.85
2019-02-24T23:11:14.098Z,6.67
2019-02-24T23:13:43.014Z,6.60
2019-02-24T23:16:11.981Z,6.32
2019-02-24T23:18:40.658Z,6.50
2019-02-24T23:21:09.357Z,6.53
2019-02-24T23:23:38.098Z,6.54
2019-02-24T23:26:06.769Z,6.54
2019-02-24T23:28:35.556Z,6.63
2019-02-24T23:31:04.289Z,6.48
2019-02-24T23:33:32.981Z,6.48
2019-02-24T23:36:01.999Z,6.41
2019-02-24T23:38:31.279Z,6.51
2019-02-24T23:41:00.207Z,6.47
2019-02-24T23:43:30.708Z,6.39
2019-02-24T23:45:59.682Z,6.28
2019-02-24T23:48:28.708Z,6.28
2019-02-24T23:50:57.710Z,6.38
2019-02-24T23:53:26.664Z,6.44
2019-02-24T23:55:55.400Z,6.31
2019-02-24T23:58:24.132Z,6.26
